sensor_id;sensor_type;location;lat;lon;timestamp;P1;durP1;ratioP1;P2;durP2;ratioP2
4174;SDS011;2101;48.290;14.382;2024-03-02T00:00:19;94.00;;;19.27;;
4174;SDS011;2101;48.290;14.382;2024-03-02T00:02:47;100.97;;;20.10;;
4174;SDS011;2101;48.290;14.382;2024-03-02T00:05:15;107.47;;;18.73;;
4174;SDS011;2101;48.290;14.382;2024-03-02T00:07:45;99.73;;;19.27;;
4174;SDS011;2101;48.290;14.382;2024-03-02T00:10:22;109.27;;;20.50;;
4174;SDS011;2101;48.290;14.382;2024-03-02T00:12:56;122.33;;;20.07;;
4174;SDS011;2101;48.290;14.382;2024-03-02T00:18:11;103.17;;;20.37;;
4174;SDS011;2101;48.290;14.382;2024-03-02T00:20:38;122.73;;;21.03;;
4174;SDS011;2101;48.290;14.382;2024-03-02T00:23:06;119.57;;;20.93;;
4174;SDS011;2101;48.290;14.382;2024-03-02T00:25:39;125.57;;;21.40;;
4174;SDS011;2101;48.290;14.382;2024-03-02T00:28:23;128.23;;;22.00;;
4174;SDS011;2101;48.290;14.382;2024-03-02T00:30:55;112.43;;;21.50;;
4174;SDS011;2101;48.290;14.382;2024-03-02T00:33:30;140.10;;;22.27;;
4174;SDS011;2101;48.290;14.382;2024-03-02T00:36:00;128.77;;;24.00;;
4174;SDS011;2101;48.290;14.382;2024-03-02T00:38:28;108.40;;;21.80;;
4174;SDS011;2101;48.290;14.382;2024-03-02T00:40:55;125.50;;;20.90;;
4174;SDS011;2101;48.290;14.382;2024-03-02T00:46:01;115.80;;;22.23;;
4174;SDS011;2101;48.290;14.382;2024-03-02T00:48:27;108.90;;;19.53;;
4174;SDS011;2101;48.290;14.382;2024-03-02T00:50:53;116.37;;;20.97;;
4174;SDS011;2101;48.290;14.382;2024-03-02T00:53:21;119.03;;;21.50;;
4174;SDS011;2101;48.290;14.382;2024-03-02T00:55:49;115.93;;;20.67;;
4174;SDS011;2101;48.290;14.382;2024-03-02T00:58:15;110.70;;;20.70;;
4174;SDS011;2101;48.290;14.382;2024-03-02T01:00:41;129.50;;;22.50;;
4174;SDS011;2101;48.290;14.382;2024-03-02T01:03:07;122.83;;;22.93;;
4174;SDS011;2101;48.290;14.382;2024-03-02T01:05:33;137.50;;;22.50;;
4174;SDS011;2101;48.290;14.382;2024-03-02T01:08:00;121.13;;;21.87;;
4174;SDS011;2101;48.290;14.382;2024-03-02T01:10:25;112.00;;;23.07;;
4174;SDS011;2101;48.290;14.382;2024-03-02T01:12:51;127.33;;;23.20;;
4174;SDS011;2101;48.290;14.382;2024-03-02T01:15:17;125.53;;;21.73;;
4174;SDS011;2101;48.290;14.382;2024-03-02T01:17:43;113.77;;;22.07;;
4174;SDS011;2101;48.290;14.382;2024-03-02T01:20:09;119.67;;;21.67;;
4174;SDS011;2101;48.290;14.382;2024-03-02T01:22:35;133.47;;;23.30;;
4174;SDS011;2101;48.290;14.382;2024-03-02T01:25:02;119.40;;;22.07;;
4174;SDS011;2101;48.290;14.382;2024-03-02T01:27:29;109.63;;;22.47;;
4174;SDS011;2101;48.290;14.382;2024-03-02T01:29:55;102.80;;;21.10;;
4174;SDS011;2101;48.290;14.382;2024-03-02T01:32:20;131.27;;;20.90;;
4174;SDS011;2101;48.290;14.382;2024-03-02T01:34:46;115.40;;;21.97;;
4174;SDS011;2101;48.290;14.382;2024-03-02T01:37:12;129.83;;;23.07;;
4174;SDS011;2101;48.290;14.382;2024-03-02T01:39:38;120.00;;;22.20;;
4174;SDS011;2101;48.290;14.382;2024-03-02T01:42:04;129.33;;;20.60;;
4174;SDS011;2101;48.290;14.382;2024-03-02T01:44:30;117.73;;;22.67;;
4174;SDS011;2101;48.290;14.382;2024-03-02T01:46:56;127.67;;;23.57;;
4174;SDS011;2101;48.290;14.382;2024-03-02T01:49:22;105.90;;;22.60;;
4174;SDS011;2101;48.290;14.382;2024-03-02T01:51:48;103.33;;;19.93;;
4174;SDS011;2101;48.290;14.382;2024-03-02T01:54:14;111.97;;;21.50;;
4174;SDS011;2101;48.290;14.382;2024-03-02T01:56:39;115.87;;;23.63;;
4174;SDS011;2101;48.290;14.382;2024-03-02T01:59:06;127.20;;;20.10;;
4174;SDS011;2101;48.290;14.382;2024-03-02T02:01:32;113.83;;;22.67;;
4174;SDS011;2101;48.290;14.382;2024-03-02T02:03:58;108.27;;;21.87;;
4174;SDS011;2101;48.290;14.382;2024-03-02T02:06:23;109.53;;;22.73;;
4174;SDS011;2101;48.290;14.382;2024-03-02T02:08:49;128.70;;;21.50;;
4174;SDS011;2101;48.290;14.382;2024-03-02T02:11:15;126.07;;;23.67;;
4174;SDS011;2101;48.290;14.382;2024-03-02T02:13:42;106.50;;;22.73;;
4174;SDS011;2101;48.290;14.382;2024-03-02T02:16:08;121.43;;;23.67;;
4174;SDS011;2101;48.290;14.382;2024-03-02T02:18:34;127.90;;;22.63;;
4174;SDS011;2101;48.290;14.382;2024-03-02T02:21:01;127.20;;;23.90;;
4174;SDS011;2101;48.290;14.382;2024-03-02T02:23:27;116.07;;;22.33;;
4174;SDS011;2101;48.290;14.382;2024-03-02T02:25:53;118.60;;;23.70;;
4174;SDS011;2101;48.290;14.382;2024-03-02T02:28:19;135.53;;;26.07;;
4174;SDS011;2101;48.290;14.382;2024-03-02T02:30:45;125.30;;;22.80;;
4174;SDS011;2101;48.290;14.382;2024-03-02T02:33:11;101.33;;;21.97;;
4174;SDS011;2101;48.290;14.382;2024-03-02T02:35:37;108.17;;;22.20;;
4174;SDS011;2101;48.290;14.382;2024-03-02T02:38:03;118.70;;;23.87;;
4174;SDS011;2101;48.290;14.382;2024-03-02T02:40:30;115.73;;;20.67;;
4174;SDS011;2101;48.290;14.382;2024-03-02T02:42:56;107.63;;;18.83;;
4174;SDS011;2101;48.290;14.382;2024-03-02T02:45:22;101.80;;;19.77;;
4174;SDS011;2101;48.290;14.382;2024-03-02T02:47:49;121.23;;;20.97;;
4174;SDS011;2101;48.290;14.382;2024-03-02T02:50:15;106.23;;;20.97;;
4174;SDS011;2101;48.290;14.382;2024-03-02T02:52:41;114.63;;;20.30;;
4174;SDS011;2101;48.290;14.382;2024-03-02T02:55:08;133.93;;;23.37;;
4174;SDS011;2101;48.290;14.382;2024-03-02T02:57:36;127.27;;;23.80;;
4174;SDS011;2101;48.290;14.382;2024-03-02T03:02:39;113.67;;;21.03;;
4174;SDS011;2101;48.290;14.382;2024-03-02T03:05:09;125.50;;;24.30;;
4174;SDS011;2101;48.290;14.382;2024-03-02T03:07:36;115.23;;;20.93;;
4174;SDS011;2101;48.290;14.382;2024-03-02T03:10:04;122.67;;;24.13;;
4174;SDS011;2101;48.290;14.382;2024-03-02T03:12:31;114.80;;;22.90;;
4174;SDS011;2101;48.290;14.382;2024-03-02T03:14:58;125.77;;;23.67;;
4174;SDS011;2101;48.290;14.382;2024-03-02T03:17:24;128.97;;;22.90;;
4174;SDS011;2101;48.290;14.382;2024-03-02T03:19:50;104.20;;;22.57;;
4174;SDS011;2101;48.290;14.382;2024-03-02T03:22:16;111.37;;;22.07;;
4174;SDS011;2101;48.290;14.382;2024-03-02T03:24:42;122.63;;;22.60;;
4174;SDS011;2101;48.290;14.382;2024-03-02T03:27:09;113.43;;;20.20;;
4174;SDS011;2101;48.290;14.382;2024-03-02T03:29:36;110.87;;;19.63;;
4174;SDS011;2101;48.290;14.382;2024-03-02T03:32:02;120.67;;;20.97;;
4174;SDS011;2101;48.290;14.382;2024-03-02T03:34:32;103.13;;;20.90;;
4174;SDS011;2101;48.290;14.382;2024-03-02T03:36:58;132.60;;;23.90;;
4174;SDS011;2101;48.290;14.382;2024-03-02T03:39:24;113.97;;;22.83;;
4174;SDS011;2101;48.290;14.382;2024-03-02T03:41:49;117.83;;;22.23;;
4174;SDS011;2101;48.290;14.382;2024-03-02T03:44:16;123.33;;;24.50;;
4174;SDS011;2101;48.290;14.382;2024-03-02T03:46:41;123.37;;;23.17;;
4174;SDS011;2101;48.290;14.382;2024-03-02T03:49:08;134.70;;;23.07;;
4174;SDS011;2101;48.290;14.382;2024-03-02T03:51:34;118.37;;;22.37;;
4174;SDS011;2101;48.290;14.382;2024-03-02T03:54:00;132.80;;;23.57;;
4174;SDS011;2101;48.290;14.382;2024-03-02T03:56:26;126.33;;;22.57;;
4174;SDS011;2101;48.290;14.382;2024-03-02T03:58:52;118.37;;;23.30;;
4174;SDS011;2101;48.290;14.382;2024-03-02T04:01:18;122.77;;;24.10;;
4174;SDS011;2101;48.290;14.382;2024-03-02T04:03:44;113.40;;;22.67;;
4174;SDS011;2101;48.290;14.382;2024-03-02T04:06:10;119.30;;;21.93;;
4174;SDS011;2101;48.290;14.382;2024-03-02T04:08:36;150.17;;;25.03;;
4174;SDS011;2101;48.290;14.382;2024-03-02T04:11:02;125.77;;;24.47;;
4174;SDS011;2101;48.290;14.382;2024-03-02T04:13:28;152.93;;;24.77;;
4174;SDS011;2101;48.290;14.382;2024-03-02T04:15:53;127.80;;;22.47;;
4174;SDS011;2101;48.290;14.382;2024-03-02T04:18:19;129.97;;;23.73;;
4174;SDS011;2101;48.290;14.382;2024-03-02T04:20:45;122.80;;;22.27;;
4174;SDS011;2101;48.290;14.382;2024-03-02T04:23:11;129.83;;;24.67;;
4174;SDS011;2101;48.290;14.382;2024-03-02T04:25:37;130.20;;;25.10;;
4174;SDS011;2101;48.290;14.382;2024-03-02T04:28:03;114.17;;;23.90;;
4174;SDS011;2101;48.290;14.382;2024-03-02T04:30:29;122.57;;;25.90;;
4174;SDS011;2101;48.290;14.382;2024-03-02T04:32:55;120.73;;;23.00;;
4174;SDS011;2101;48.290;14.382;2024-03-02T04:35:20;123.90;;;23.33;;
4174;SDS011;2101;48.290;14.382;2024-03-02T04:37:46;118.40;;;22.57;;
4174;SDS011;2101;48.290;14.382;2024-03-02T04:40:12;123.10;;;23.40;;
4174;SDS011;2101;48.290;14.382;2024-03-02T04:42:38;113.60;;;23.10;;
4174;SDS011;2101;48.290;14.382;2024-03-02T04:45:04;110.87;;;21.93;;
4174;SDS011;2101;48.290;14.382;2024-03-02T04:47:30;119.10;;;22.37;;
4174;SDS011;2101;48.290;14.382;2024-03-02T04:49:56;125.37;;;23.77;;
4174;SDS011;2101;48.290;14.382;2024-03-02T04:52:22;126.77;;;25.17;;
4174;SDS011;2101;48.290;14.382;2024-03-02T04:54:47;129.23;;;25.93;;
4174;SDS011;2101;48.290;14.382;2024-03-02T04:57:32;123.27;;;23.90;;
4174;SDS011;2101;48.290;14.382;2024-03-02T04:59:58;137.47;;;27.10;;
4174;SDS011;2101;48.290;14.382;2024-03-02T05:02:24;133.03;;;25.73;;
4174;SDS011;2101;48.290;14.382;2024-03-02T05:04:50;136.17;;;25.00;;
4174;SDS011;2101;48.290;14.382;2024-03-02T05:07:16;136.90;;;26.00;;
4174;SDS011;2101;48.290;14.382;2024-03-02T05:09:42;119.10;;;23.73;;
4174;SDS011;2101;48.290;14.382;2024-03-02T05:12:08;127.10;;;24.73;;
4174;SDS011;2101;48.290;14.382;2024-03-02T05:14:54;120.63;;;23.10;;
4174;SDS011;2101;48.290;14.382;2024-03-02T05:17:21;121.63;;;23.17;;
4174;SDS011;2101;48.290;14.382;2024-03-02T05:19:47;112.00;;;20.73;;
4174;SDS011;2101;48.290;14.382;2024-03-02T05:22:13;112.90;;;21.23;;
4174;SDS011;2101;48.290;14.382;2024-03-02T05:24:38;134.40;;;24.07;;
4174;SDS011;2101;48.290;14.382;2024-03-02T05:27:04;128.13;;;24.67;;
4174;SDS011;2101;48.290;14.382;2024-03-02T05:29:32;142.93;;;23.37;;
4174;SDS011;2101;48.290;14.382;2024-03-02T05:31:58;115.50;;;23.90;;
4174;SDS011;2101;48.290;14.382;2024-03-02T05:34:24;129.57;;;24.37;;
4174;SDS011;2101;48.290;14.382;2024-03-02T05:36:50;130.30;;;24.20;;
4174;SDS011;2101;48.290;14.382;2024-03-02T05:39:15;134.03;;;26.07;;
4174;SDS011;2101;48.290;14.382;2024-03-02T05:41:41;139.97;;;22.73;;
4174;SDS011;2101;48.290;14.382;2024-03-02T05:44:07;131.00;;;26.43;;
4174;SDS011;2101;48.290;14.382;2024-03-02T05:46:33;146.30;;;27.43;;
4174;SDS011;2101;48.290;14.382;2024-03-02T05:48:59;147.90;;;27.80;;
4174;SDS011;2101;48.290;14.382;2024-03-02T05:51:26;156.77;;;29.53;;
4174;SDS011;2101;48.290;14.382;2024-03-02T05:53:51;125.77;;;25.20;;
4174;SDS011;2101;48.290;14.382;2024-03-02T05:56:17;151.93;;;27.03;;
4174;SDS011;2101;48.290;14.382;2024-03-02T05:58:43;130.90;;;23.27;;
4174;SDS011;2101;48.290;14.382;2024-03-02T06:01:33;142.03;;;26.27;;
4174;SDS011;2101;48.290;14.382;2024-03-02T06:03:59;150.53;;;25.70;;
4174;SDS011;2101;48.290;14.382;2024-03-02T06:06:25;120.87;;;24.70;;
4174;SDS011;2101;48.290;14.382;2024-03-02T06:08:51;136.57;;;26.20;;
4174;SDS011;2101;48.290;14.382;2024-03-02T06:11:18;156.83;;;26.00;;
4174;SDS011;2101;48.290;14.382;2024-03-02T06:13:45;126.67;;;23.57;;
4174;SDS011;2101;48.290;14.382;2024-03-02T06:16:11;139.63;;;25.67;;
4174;SDS011;2101;48.290;14.382;2024-03-02T06:18:37;138.53;;;24.50;;
4174;SDS011;2101;48.290;14.382;2024-03-02T06:21:03;140.97;;;25.77;;
4174;SDS011;2101;48.290;14.382;2024-03-02T06:23:29;130.93;;;25.17;;
4174;SDS011;2101;48.290;14.382;2024-03-02T06:25:55;123.97;;;23.47;;
4174;SDS011;2101;48.290;14.382;2024-03-02T06:28:21;117.33;;;24.27;;
4174;SDS011;2101;48.290;14.382;2024-03-02T06:30:46;128.43;;;25.10;;
4174;SDS011;2101;48.290;14.382;2024-03-02T06:33:12;138.27;;;25.70;;
4174;SDS011;2101;48.290;14.382;2024-03-02T06:35:38;125.70;;;24.30;;
4174;SDS011;2101;48.290;14.382;2024-03-02T06:38:04;104.20;;;21.20;;
4174;SDS011;2101;48.290;14.382;2024-03-02T06:40:30;141.47;;;24.03;;
4174;SDS011;2101;48.290;14.382;2024-03-02T06:42:56;121.17;;;23.63;;
4174;SDS011;2101;48.290;14.382;2024-03-02T06:45:22;128.23;;;24.13;;
4174;SDS011;2101;48.290;14.382;2024-03-02T06:47:48;131.87;;;23.70;;
4174;SDS011;2101;48.290;14.382;2024-03-02T06:50:13;112.87;;;23.00;;
4174;SDS011;2101;48.290;14.382;2024-03-02T06:52:39;125.80;;;25.87;;
4174;SDS011;2101;48.290;14.382;2024-03-02T06:55:05;123.27;;;23.53;;
4174;SDS011;2101;48.290;14.382;2024-03-02T06:57:31;133.63;;;23.33;;
4174;SDS011;2101;48.290;14.382;2024-03-02T06:59:57;122.73;;;24.33;;
4174;SDS011;2101;48.290;14.382;2024-03-02T07:02:24;132.10;;;24.23;;
4174;SDS011;2101;48.290;14.382;2024-03-02T07:04:54;137.97;;;26.53;;
4174;SDS011;2101;48.290;14.382;2024-03-02T07:07:20;126.83;;;23.77;;
4174;SDS011;2101;48.290;14.382;2024-03-02T07:09:46;132.30;;;24.40;;
4174;SDS011;2101;48.290;14.382;2024-03-02T07:12:12;129.03;;;25.03;;
4174;SDS011;2101;48.290;14.382;2024-03-02T07:14:39;121.10;;;24.20;;
4174;SDS011;2101;48.290;14.382;2024-03-02T07:17:23;133.10;;;23.70;;
4174;SDS011;2101;48.290;14.382;2024-03-02T07:19:50;128.60;;;22.43;;
4174;SDS011;2101;48.290;14.382;2024-03-02T07:22:15;126.53;;;23.07;;
4174;SDS011;2101;48.290;14.382;2024-03-02T07:24:42;113.80;;;22.90;;
4174;SDS011;2101;48.290;14.382;2024-03-02T07:27:09;110.77;;;23.80;;
4174;SDS011;2101;48.290;14.382;2024-03-02T07:29:35;110.80;;;23.27;;
4174;SDS011;2101;48.290;14.382;2024-03-02T07:32:04;115.50;;;23.53;;
4174;SDS011;2101;48.290;14.382;2024-03-02T07:34:31;96.23;;;20.33;;
4174;SDS011;2101;48.290;14.382;2024-03-02T07:36:57;105.87;;;20.67;;
4174;SDS011;2101;48.290;14.382;2024-03-02T07:39:23;104.23;;;22.47;;
4174;SDS011;2101;48.290;14.382;2024-03-02T07:41:49;97.80;;;21.10;;
4174;SDS011;2101;48.290;14.382;2024-03-02T07:44:15;95.07;;;19.40;;
4174;SDS011;2101;48.290;14.382;2024-03-02T07:46:41;98.17;;;20.93;;
4174;SDS011;2101;48.290;14.382;2024-03-02T07:49:12;115.30;;;19.07;;
4174;SDS011;2101;48.290;14.382;2024-03-02T07:51:45;99.97;;;19.43;;
4174;SDS011;2101;48.290;14.382;2024-03-02T07:54:11;91.77;;;19.17;;
4174;SDS011;2101;48.290;14.382;2024-03-02T07:56:37;95.50;;;17.93;;
4174;SDS011;2101;48.290;14.382;2024-03-02T07:59:03;97.23;;;19.13;;
4174;SDS011;2101;48.290;14.382;2024-03-02T08:01:29;87.47;;;18.00;;
4174;SDS011;2101;48.290;14.382;2024-03-02T08:03:57;94.47;;;16.10;;
4174;SDS011;2101;48.290;14.382;2024-03-02T08:06:24;93.53;;;18.33;;
4174;SDS011;2101;48.290;14.382;2024-03-02T08:08:53;105.73;;;19.53;;
4174;SDS011;2101;48.290;14.382;2024-03-02T08:11:23;86.07;;;16.90;;
4174;SDS011;2101;48.290;14.382;2024-03-02T08:13:50;93.03;;;19.40;;
4174;SDS011;2101;48.290;14.382;2024-03-02T08:16:18;103.10;;;22.30;;
4174;SDS011;2101;48.290;14.382;2024-03-02T08:18:50;91.87;;;20.90;;
4174;SDS011;2101;48.290;14.382;2024-03-02T08:21:16;104.70;;;21.47;;
4174;SDS011;2101;48.290;14.382;2024-03-02T08:23:42;96.63;;;20.97;;
4174;SDS011;2101;48.290;14.382;2024-03-02T08:26:09;97.43;;;20.30;;
4174;SDS011;2101;48.290;14.382;2024-03-02T08:28:41;99.27;;;20.30;;
4174;SDS011;2101;48.290;14.382;2024-03-02T08:31:24;106.83;;;19.73;;
4174;SDS011;2101;48.290;14.382;2024-03-02T08:33:53;102.70;;;22.10;;
4174;SDS011;2101;48.290;14.382;2024-03-02T08:37:11;86.30;;;18.27;;
4174;SDS011;2101;48.290;14.382;2024-03-02T08:39:37;92.90;;;19.90;;
4174;SDS011;2101;48.290;14.382;2024-03-02T08:42:03;95.77;;;20.10;;
4174;SDS011;2101;48.290;14.382;2024-03-02T08:44:29;101.23;;;20.30;;
4174;SDS011;2101;48.290;14.382;2024-03-02T08:46:55;87.07;;;19.10;;
4174;SDS011;2101;48.290;14.382;2024-03-02T08:49:21;104.33;;;19.90;;
4174;SDS011;2101;48.290;14.382;2024-03-02T08:51:47;91.87;;;20.97;;
4174;SDS011;2101;48.290;14.382;2024-03-02T08:54:20;100.13;;;19.90;;
4174;SDS011;2101;48.290;14.382;2024-03-02T08:56:47;93.90;;;20.13;;
4174;SDS011;2101;48.290;14.382;2024-03-02T08:59:13;90.17;;;20.37;;
4174;SDS011;2101;48.290;14.382;2024-03-02T09:01:39;98.47;;;20.93;;
4174;SDS011;2101;48.290;14.382;2024-03-02T09:04:07;97.43;;;19.50;;
4174;SDS011;2101;48.290;14.382;2024-03-02T09:06:35;89.03;;;20.50;;
4174;SDS011;2101;48.290;14.382;2024-03-02T09:09:01;99.13;;;20.30;;
4174;SDS011;2101;48.290;14.382;2024-03-02T09:11:28;84.80;;;18.43;;
4174;SDS011;2101;48.290;14.382;2024-03-02T09:13:54;91.93;;;18.23;;
4174;SDS011;2101;48.290;14.382;2024-03-02T09:16:21;82.17;;;18.30;;
4174;SDS011;2101;48.290;14.382;2024-03-02T09:18:47;97.83;;;18.77;;
4174;SDS011;2101;48.290;14.382;2024-03-02T09:21:13;92.97;;;18.33;;
4174;SDS011;2101;48.290;14.382;2024-03-02T09:23:40;93.20;;;18.80;;
4174;SDS011;2101;48.290;14.382;2024-03-02T09:26:12;86.13;;;18.70;;
4174;SDS011;2101;48.290;14.382;2024-03-02T09:28:42;91.83;;;19.10;;
4174;SDS011;2101;48.290;14.382;2024-03-02T09:31:08;83.60;;;18.47;;
4174;SDS011;2101;48.290;14.382;2024-03-02T09:33:34;86.90;;;17.87;;
4174;SDS011;2101;48.290;14.382;2024-03-02T09:36:00;79.70;;;17.70;;
4174;SDS011;2101;48.290;14.382;2024-03-02T09:38:26;84.57;;;18.40;;
4174;SDS011;2101;48.290;14.382;2024-03-02T09:40:52;98.27;;;18.07;;
4174;SDS011;2101;48.290;14.382;2024-03-02T09:43:17;90.00;;;18.90;;
4174;SDS011;2101;48.290;14.382;2024-03-02T09:45:44;91.00;;;18.20;;
4174;SDS011;2101;48.290;14.382;2024-03-02T09:48:10;81.90;;;18.10;;
4174;SDS011;2101;48.290;14.382;2024-03-02T09:50:36;84.53;;;17.33;;
4174;SDS011;2101;48.290;14.382;2024-03-02T09:53:02;79.43;;;17.00;;
4174;SDS011;2101;48.290;14.382;2024-03-02T09:55:29;83.43;;;17.57;;
4174;SDS011;2101;48.290;14.382;2024-03-02T09:57:55;80.30;;;17.03;;
4174;SDS011;2101;48.290;14.382;2024-03-02T10:00:21;83.87;;;17.90;;
4174;SDS011;2101;48.290;14.382;2024-03-02T10:02:47;90.37;;;17.57;;
4174;SDS011;2101;48.290;14.382;2024-03-02T10:05:23;86.70;;;17.47;;
4174;SDS011;2101;48.290;14.382;2024-03-02T10:07:58;76.17;;;16.10;;
4174;SDS011;2101;48.290;14.382;2024-03-02T10:10:34;80.67;;;15.73;;
4174;SDS011;2101;48.290;14.382;2024-03-02T10:13:05;85.90;;;16.93;;
4174;SDS011;2101;48.290;14.382;2024-03-02T10:15:35;78.03;;;16.20;;
4174;SDS011;2101;48.290;14.382;2024-03-02T10:18:11;78.77;;;16.77;;
4174;SDS011;2101;48.290;14.382;2024-03-02T10:20:38;80.27;;;15.80;;
4174;SDS011;2101;48.290;14.382;2024-03-02T10:23:12;84.30;;;17.10;;
4174;SDS011;2101;48.290;14.382;2024-03-02T10:25:39;88.80;;;19.57;;
4174;SDS011;2101;48.290;14.382;2024-03-02T10:28:06;75.50;;;15.30;;
4174;SDS011;2101;48.290;14.382;2024-03-02T10:30:33;84.53;;;15.40;;
4174;SDS011;2101;48.290;14.382;2024-03-02T10:33:03;75.80;;;15.97;;
4174;SDS011;2101;48.290;14.382;2024-03-02T10:35:31;77.10;;;16.07;;
4174;SDS011;2101;48.290;14.382;2024-03-02T10:38:01;79.67;;;14.17;;
4174;SDS011;2101;48.290;14.382;2024-03-02T10:40:30;72.30;;;14.13;;
4174;SDS011;2101;48.290;14.382;2024-03-02T10:42:56;78.30;;;16.00;;
4174;SDS011;2101;48.290;14.382;2024-03-02T10:45:24;80.80;;;15.60;;
4174;SDS011;2101;48.290;14.382;2024-03-02T10:47:50;81.33;;;15.97;;
4174;SDS011;2101;48.290;14.382;2024-03-02T10:50:16;79.70;;;16.37;;
4174;SDS011;2101;48.290;14.382;2024-03-02T10:52:42;79.83;;;16.03;;
4174;SDS011;2101;48.290;14.382;2024-03-02T10:55:11;90.20;;;16.70;;
4174;SDS011;2101;48.290;14.382;2024-03-02T10:57:53;80.07;;;15.40;;
4174;SDS011;2101;48.290;14.382;2024-03-02T11:00:21;72.07;;;14.33;;
4174;SDS011;2101;48.290;14.382;2024-03-02T11:05:36;79.80;;;15.00;;
4174;SDS011;2101;48.290;14.382;2024-03-02T11:08:11;78.03;;;15.20;;
4174;SDS011;2101;48.290;14.382;2024-03-02T11:10:50;86.30;;;16.37;;
4174;SDS011;2101;48.290;14.382;2024-03-02T11:13:18;74.40;;;14.93;;
4174;SDS011;2101;48.290;14.382;2024-03-02T11:15:49;76.97;;;14.97;;
4174;SDS011;2101;48.290;14.382;2024-03-02T11:18:19;74.93;;;15.23;;
4174;SDS011;2101;48.290;14.382;2024-03-02T11:20:46;79.90;;;16.10;;
4174;SDS011;2101;48.290;14.382;2024-03-02T11:23:12;79.17;;;14.57;;
4174;SDS011;2101;48.290;14.382;2024-03-02T11:25:39;78.23;;;14.17;;
4174;SDS011;2101;48.290;14.382;2024-03-02T11:28:05;73.37;;;14.10;;
4174;SDS011;2101;48.290;14.382;2024-03-02T11:33:06;82.90;;;16.57;;
4174;SDS011;2101;48.290;14.382;2024-03-02T11:35:35;76.33;;;16.20;;
4174;SDS011;2101;48.290;14.382;2024-03-02T11:38:05;82.80;;;16.17;;
4174;SDS011;2101;48.290;14.382;2024-03-02T11:40:32;77.03;;;15.70;;
4174;SDS011;2101;48.290;14.382;2024-03-02T11:43:01;101.13;;;19.50;;
4174;SDS011;2101;48.290;14.382;2024-03-02T11:45:27;94.77;;;21.50;;
4174;SDS011;2101;48.290;14.382;2024-03-02T11:47:54;99.93;;;21.43;;
4174;SDS011;2101;48.290;14.382;2024-03-02T11:50:30;83.07;;;16.97;;
4174;SDS011;2101;48.290;14.382;2024-03-02T11:53:06;97.03;;;15.17;;
4174;SDS011;2101;48.290;14.382;2024-03-02T11:55:34;79.63;;;15.83;;
4174;SDS011;2101;48.290;14.382;2024-03-02T11:58:04;80.23;;;15.77;;
4174;SDS011;2101;48.290;14.382;2024-03-02T12:00:30;80.40;;;15.57;;
4174;SDS011;2101;48.290;14.382;2024-03-02T12:03:00;84.70;;;15.40;;
4174;SDS011;2101;48.290;14.382;2024-03-02T12:05:31;79.30;;;15.40;;
4174;SDS011;2101;48.290;14.382;2024-03-02T12:07:58;75.67;;;13.67;;
4174;SDS011;2101;48.290;14.382;2024-03-02T12:10:27;71.67;;;13.23;;
4174;SDS011;2101;48.290;14.382;2024-03-02T12:12:57;62.23;;;11.50;;
4174;SDS011;2101;48.290;14.382;2024-03-02T12:15:27;77.40;;;13.30;;
4174;SDS011;2101;48.290;14.382;2024-03-02T12:17:55;68.33;;;12.53;;
4174;SDS011;2101;48.290;14.382;2024-03-02T12:20:22;69.37;;;13.00;;
4174;SDS011;2101;48.290;14.382;2024-03-02T12:22:51;75.97;;;13.77;;
4174;SDS011;2101;48.290;14.382;2024-03-02T12:25:19;71.80;;;12.30;;
4174;SDS011;2101;48.290;14.382;2024-03-02T12:27:46;61.00;;;10.63;;
4174;SDS011;2101;48.290;14.382;2024-03-02T12:30:14;64.67;;;11.80;;
4174;SDS011;2101;48.290;14.382;2024-03-02T12:32:42;67.80;;;12.10;;
4174;SDS011;2101;48.290;14.382;2024-03-02T12:35:09;67.27;;;10.93;;
4174;SDS011;2101;48.290;14.382;2024-03-02T12:37:44;71.40;;;12.77;;
4174;SDS011;2101;48.290;14.382;2024-03-02T12:40:11;73.67;;;11.57;;
4174;SDS011;2101;48.290;14.382;2024-03-02T12:42:41;73.40;;;11.70;;
4174;SDS011;2101;48.290;14.382;2024-03-02T12:45:07;71.13;;;12.23;;
4174;SDS011;2101;48.290;14.382;2024-03-02T12:47:34;69.73;;;13.07;;
4174;SDS011;2101;48.290;14.382;2024-03-02T12:50:00;71.47;;;12.40;;
4174;SDS011;2101;48.290;14.382;2024-03-02T12:52:26;66.40;;;13.13;;
4174;SDS011;2101;48.290;14.382;2024-03-02T12:54:52;63.50;;;12.20;;
4174;SDS011;2101;48.290;14.382;2024-03-02T12:57:24;66.33;;;13.17;;
4174;SDS011;2101;48.290;14.382;2024-03-02T12:59:52;63.13;;;12.17;;
4174;SDS011;2101;48.290;14.382;2024-03-02T13:02:22;65.30;;;12.43;;
4174;SDS011;2101;48.290;14.382;2024-03-02T13:04:53;65.33;;;12.03;;
4174;SDS011;2101;48.290;14.382;2024-03-02T13:07:20;66.40;;;12.87;;
4174;SDS011;2101;48.290;14.382;2024-03-02T13:09:48;66.73;;;12.30;;
4174;SDS011;2101;48.290;14.382;2024-03-02T13:12:17;66.07;;;11.20;;
4174;SDS011;2101;48.290;14.382;2024-03-02T13:14:50;64.57;;;12.13;;
4174;SDS011;2101;48.290;14.382;2024-03-02T13:17:17;67.10;;;10.67;;
4174;SDS011;2101;48.290;14.382;2024-03-02T13:19:57;69.07;;;12.10;;
4174;SDS011;2101;48.290;14.382;2024-03-02T13:22:24;63.53;;;11.40;;
4174;SDS011;2101;48.290;14.382;2024-03-02T13:24:51;62.90;;;11.10;;
4174;SDS011;2101;48.290;14.382;2024-03-02T13:27:19;66.67;;;11.53;;
4174;SDS011;2101;48.290;14.382;2024-03-02T13:29:46;66.10;;;11.13;;
4174;SDS011;2101;48.290;14.382;2024-03-02T13:32:15;67.63;;;12.40;;
4174;SDS011;2101;48.290;14.382;2024-03-02T13:34:42;72.63;;;12.97;;
4174;SDS011;2101;48.290;14.382;2024-03-02T13:37:08;67.97;;;12.17;;
4174;SDS011;2101;48.290;14.382;2024-03-02T13:39:34;66.93;;;11.87;;
4174;SDS011;2101;48.290;14.382;2024-03-02T13:42:08;61.97;;;10.80;;
4174;SDS011;2101;48.290;14.382;2024-03-02T13:44:35;67.20;;;10.40;;
4174;SDS011;2101;48.290;14.382;2024-03-02T13:47:02;66.43;;;11.33;;
4174;SDS011;2101;48.290;14.382;2024-03-02T13:49:29;63.07;;;10.60;;
4174;SDS011;2101;48.290;14.382;2024-03-02T13:52:08;69.03;;;12.03;;
4174;SDS011;2101;48.290;14.382;2024-03-02T13:54:41;65.87;;;10.67;;
4174;SDS011;2101;48.290;14.382;2024-03-02T13:57:11;64.13;;;11.40;;
4174;SDS011;2101;48.290;14.382;2024-03-02T13:59:38;63.50;;;12.50;;
4174;SDS011;2101;48.290;14.382;2024-03-02T14:02:04;64.50;;;10.90;;
4174;SDS011;2101;48.290;14.382;2024-03-02T14:04:33;70.70;;;11.77;;
4174;SDS011;2101;48.290;14.382;2024-03-02T14:07:00;70.80;;;13.87;;
4174;SDS011;2101;48.290;14.382;2024-03-02T14:09:26;63.80;;;11.53;;
4174;SDS011;2101;48.290;14.382;2024-03-02T14:11:53;61.53;;;9.40;;
4174;SDS011;2101;48.290;14.382;2024-03-02T14:14:19;63.87;;;11.47;;
4174;SDS011;2101;48.290;14.382;2024-03-02T14:16:45;70.77;;;12.17;;
4174;SDS011;2101;48.290;14.382;2024-03-02T14:19:11;64.43;;;11.93;;
4174;SDS011;2101;48.290;14.382;2024-03-02T14:21:38;63.10;;;12.00;;
4174;SDS011;2101;48.290;14.382;2024-03-02T14:24:04;68.63;;;12.63;;
4174;SDS011;2101;48.290;14.382;2024-03-02T14:26:32;60.83;;;9.83;;
4174;SDS011;2101;48.290;14.382;2024-03-02T14:29:02;65.63;;;10.47;;
4174;SDS011;2101;48.290;14.382;2024-03-02T14:31:28;65.97;;;11.77;;
4174;SDS011;2101;48.290;14.382;2024-03-02T14:33:56;67.17;;;12.53;;
4174;SDS011;2101;48.290;14.382;2024-03-02T14:36:22;64.47;;;11.03;;
4174;SDS011;2101;48.290;14.382;2024-03-02T14:38:48;65.70;;;12.73;;
4174;SDS011;2101;48.290;14.382;2024-03-02T14:41:14;64.93;;;11.07;;
4174;SDS011;2101;48.290;14.382;2024-03-02T14:43:40;65.87;;;11.50;;